Terminal Aerodrome Forecast
Issued by NWS

Home | Current Version | Previous Version | Text Only | Print | Product List | Glossary On
Versions: 1 2 3 4 5 6 7 8 9 10 11 12 13
000
FTUS42 KMLB 280500
TAFSFB
TAF
KSFB 280539Z 2806/2906 25005KT P6SM FEW030 SCT250
     FM281500 26012KT P6SM SCT035 SCT250
     FM290100 25006KT P6SM FEW040 SCT250
      AMD NOT SKED TIL 281100=

USA.gov is the U.S. government's official web portal to all federal, state and local government web resources and services.